sensor_id;sensor_type;location;lat;lon;timestamp;P1;durP1;ratioP1;P2;durP2;ratioP2
37455;SDS011;23316;50.718;7.328;2023-04-01T00:02:16;3.50;;;0.68;;
37455;SDS011;23316;50.718;7.328;2023-04-01T00:04:44;1.77;;;0.50;;
37455;SDS011;23316;50.718;7.328;2023-04-01T00:07:12;2.03;;;0.35;;
37455;SDS011;23316;50.718;7.328;2023-04-01T00:09:39;2.45;;;0.50;;
37455;SDS011;23316;50.718;7.328;2023-04-01T00:12:08;2.47;;;0.30;;
37455;SDS011;23316;50.718;7.328;2023-04-01T00:14:35;1.45;;;0.63;;
37455;SDS011;23316;50.718;7.328;2023-04-01T00:17:03;2.00;;;0.43;;
37455;SDS011;23316;50.718;7.328;2023-04-01T00:19:30;2.38;;;0.38;;
37455;SDS011;23316;50.718;7.328;2023-04-01T00:21:58;3.03;;;0.50;;
37455;SDS011;23316;50.718;7.328;2023-04-01T00:24:25;3.35;;;0.38;;
37455;SDS011;23316;50.718;7.328;2023-04-01T00:26:53;2.08;;;0.45;;
37455;SDS011;23316;50.718;7.328;2023-04-01T00:29:21;2.75;;;0.60;;
37455;SDS011;23316;50.718;7.328;2023-04-01T00:31:55;1.10;;;0.30;;
37455;SDS011;23316;50.718;7.328;2023-04-01T00:34:22;1.40;;;0.40;;
37455;SDS011;23316;50.718;7.328;2023-04-01T00:36:50;3.20;;;0.55;;
37455;SDS011;23316;50.718;7.328;2023-04-01T00:39:18;0.75;;;0.32;;
37455;SDS011;23316;50.718;7.328;2023-04-01T00:41:46;2.05;;;0.50;;
37455;SDS011;23316;50.718;7.328;2023-04-01T00:44:14;3.60;;;0.55;;
37455;SDS011;23316;50.718;7.328;2023-04-01T00:46:45;2.25;;;0.40;;
37455;SDS011;23316;50.718;7.328;2023-04-01T00:49:13;0.30;;;0.25;;
37455;SDS011;23316;50.718;7.328;2023-04-01T00:51:41;3.10;;;0.65;;
37455;SDS011;23316;50.718;7.328;2023-04-01T00:54:10;1.15;;;0.30;;
37455;SDS011;23316;50.718;7.328;2023-04-01T00:56:39;2.05;;;0.52;;
37455;SDS011;23316;50.718;7.328;2023-04-01T00:59:14;0.60;;;0.30;;
37455;SDS011;23316;50.718;7.328;2023-04-01T01:01:46;1.13;;;0.38;;
37455;SDS011;23316;50.718;7.328;2023-04-01T01:04:23;1.80;;;0.40;;
37455;SDS011;23316;50.718;7.328;2023-04-01T01:06:55;1.75;;;0.38;;
37455;SDS011;23316;50.718;7.328;2023-04-01T01:09:31;1.73;;;0.50;;
37455;SDS011;23316;50.718;7.328;2023-04-01T01:12:07;3.17;;;0.50;;
37455;SDS011;23316;50.718;7.328;2023-04-01T01:17:33;2.75;;;0.35;;
37455;SDS011;23316;50.718;7.328;2023-04-01T01:20:14;4.72;;;0.40;;
37455;SDS011;23316;50.718;7.328;2023-04-01T01:23:19;1.92;;;0.38;;
37455;SDS011;23316;50.718;7.328;2023-04-01T01:26:08;0.55;;;0.25;;
37455;SDS011;23316;50.718;7.328;2023-04-01T01:28:49;0.93;;;0.15;;
37455;SDS011;23316;50.718;7.328;2023-04-01T01:31:25;3.42;;;0.50;;
37455;SDS011;23316;50.718;7.328;2023-04-01T01:34:06;2.60;;;0.47;;
37455;SDS011;23316;50.718;7.328;2023-04-01T01:36:42;1.30;;;0.38;;
37455;SDS011;23316;50.718;7.328;2023-04-01T01:39:15;0.65;;;0.30;;
37455;SDS011;23316;50.718;7.328;2023-04-01T01:41:44;1.73;;;0.40;;
37455;SDS011;23316;50.718;7.328;2023-04-01T01:44:14;0.30;;;0.20;;
37455;SDS011;23316;50.718;7.328;2023-04-01T01:46:43;2.97;;;0.60;;
37455;SDS011;23316;50.718;7.328;2023-04-01T01:49:11;2.28;;;0.40;;
37455;SDS011;23316;50.718;7.328;2023-04-01T01:51:42;1.75;;;0.30;;
37455;SDS011;23316;50.718;7.328;2023-04-01T01:54:11;1.35;;;0.20;;
37455;SDS011;23316;50.718;7.328;2023-04-01T01:56:39;2.60;;;0.25;;
37455;SDS011;23316;50.718;7.328;2023-04-01T01:59:10;0.65;;;0.20;;
37455;SDS011;23316;50.718;7.328;2023-04-01T02:01:41;1.85;;;0.25;;
37455;SDS011;23316;50.718;7.328;2023-04-01T02:04:12;1.45;;;0.30;;
37455;SDS011;23316;50.718;7.328;2023-04-01T02:06:44;1.52;;;0.30;;
37455;SDS011;23316;50.718;7.328;2023-04-01T02:09:18;1.17;;;0.30;;
37455;SDS011;23316;50.718;7.328;2023-04-01T02:11:47;1.98;;;0.30;;
37455;SDS011;23316;50.718;7.328;2023-04-01T02:14:19;1.80;;;0.28;;
37455;SDS011;23316;50.718;7.328;2023-04-01T02:16:51;1.95;;;0.40;;
37455;SDS011;23316;50.718;7.328;2023-04-01T02:19:22;2.15;;;0.30;;
37455;SDS011;23316;50.718;7.328;2023-04-01T02:21:55;1.42;;;0.40;;
37455;SDS011;23316;50.718;7.328;2023-04-01T02:24:26;1.98;;;0.40;;
37455;SDS011;23316;50.718;7.328;2023-04-01T02:26:57;1.88;;;0.38;;
37455;SDS011;23316;50.718;7.328;2023-04-01T02:29:25;0.73;;;0.28;;
37455;SDS011;23316;50.718;7.328;2023-04-01T02:31:53;4.75;;;0.47;;
37455;SDS011;23316;50.718;7.328;2023-04-01T02:34:22;0.70;;;0.17;;
37455;SDS011;23316;50.718;7.328;2023-04-01T02:36:50;2.15;;;0.28;;
37455;SDS011;23316;50.718;7.328;2023-04-01T02:39:21;0.55;;;0.20;;
37455;SDS011;23316;50.718;7.328;2023-04-01T02:41:51;0.93;;;0.30;;
37455;SDS011;23316;50.718;7.328;2023-04-01T02:44:19;0.52;;;0.20;;
37455;SDS011;23316;50.718;7.328;2023-04-01T02:46:47;1.80;;;0.30;;
37455;SDS011;23316;50.718;7.328;2023-04-01T02:49:14;1.80;;;0.45;;
37455;SDS011;23316;50.718;7.328;2023-04-01T02:51:42;1.33;;;0.38;;
37455;SDS011;23316;50.718;7.328;2023-04-01T02:54:10;0.70;;;0.38;;
37455;SDS011;23316;50.718;7.328;2023-04-01T02:56:38;1.60;;;0.35;;
37455;SDS011;23316;50.718;7.328;2023-04-01T02:59:05;2.95;;;0.38;;
37455;SDS011;23316;50.718;7.328;2023-04-01T03:01:33;1.65;;;0.45;;
37455;SDS011;23316;50.718;7.328;2023-04-01T03:04:00;0.88;;;0.20;;
37455;SDS011;23316;50.718;7.328;2023-04-01T03:06:27;4.32;;;0.60;;
37455;SDS011;23316;50.718;7.328;2023-04-01T03:08:55;1.20;;;0.20;;
37455;SDS011;23316;50.718;7.328;2023-04-01T03:11:23;0.52;;;0.30;;
37455;SDS011;23316;50.718;7.328;2023-04-01T03:13:53;3.55;;;0.38;;
37455;SDS011;23316;50.718;7.328;2023-04-01T03:16:20;2.83;;;0.38;;
37455;SDS011;23316;50.718;7.328;2023-04-01T03:18:48;1.63;;;0.32;;
37455;SDS011;23316;50.718;7.328;2023-04-01T03:21:18;2.97;;;0.93;;
37455;SDS011;23316;50.718;7.328;2023-04-01T03:23:47;1.67;;;0.32;;
37455;SDS011;23316;50.718;7.328;2023-04-01T03:26:15;2.38;;;0.32;;
37455;SDS011;23316;50.718;7.328;2023-04-01T03:28:43;3.40;;;0.30;;
37455;SDS011;23316;50.718;7.328;2023-04-01T03:31:13;1.67;;;0.32;;
37455;SDS011;23316;50.718;7.328;2023-04-01T03:33:41;0.68;;;0.10;;
37455;SDS011;23316;50.718;7.328;2023-04-01T03:36:09;1.65;;;0.30;;
37455;SDS011;23316;50.718;7.328;2023-04-01T03:38:38;0.82;;;0.10;;
37455;SDS011;23316;50.718;7.328;2023-04-01T03:41:06;2.40;;;0.52;;
37455;SDS011;23316;50.718;7.328;2023-04-01T03:43:34;0.70;;;0.20;;
37455;SDS011;23316;50.718;7.328;2023-04-01T03:46:02;1.17;;;0.20;;
37455;SDS011;23316;50.718;7.328;2023-04-01T03:48:32;4.15;;;0.28;;
37455;SDS011;23316;50.718;7.328;2023-04-01T03:51:00;0.43;;;0.13;;
37455;SDS011;23316;50.718;7.328;2023-04-01T03:53:27;1.77;;;0.28;;
37455;SDS011;23316;50.718;7.328;2023-04-01T03:55:55;3.15;;;0.32;;
37455;SDS011;23316;50.718;7.328;2023-04-01T03:58:22;0.73;;;0.15;;
37455;SDS011;23316;50.718;7.328;2023-04-01T04:00:49;1.45;;;0.30;;
37455;SDS011;23316;50.718;7.328;2023-04-01T04:03:16;5.47;;;0.15;;
37455;SDS011;23316;50.718;7.328;2023-04-01T04:05:48;1.20;;;0.30;;
37455;SDS011;23316;50.718;7.328;2023-04-01T04:08:16;1.25;;;0.30;;
37455;SDS011;23316;50.718;7.328;2023-04-01T04:10:47;0.43;;;0.20;;
37455;SDS011;23316;50.718;7.328;2023-04-01T04:13:14;1.08;;;0.25;;
37455;SDS011;23316;50.718;7.328;2023-04-01T04:15:42;1.63;;;0.15;;
37455;SDS011;23316;50.718;7.328;2023-04-01T04:18:09;1.10;;;0.30;;
37455;SDS011;23316;50.718;7.328;2023-04-01T04:20:37;0.75;;;0.20;;
37455;SDS011;23316;50.718;7.328;2023-04-01T04:23:14;2.60;;;0.30;;
37455;SDS011;23316;50.718;7.328;2023-04-01T04:25:41;0.80;;;0.10;;
37455;SDS011;23316;50.718;7.328;2023-04-01T04:28:19;0.85;;;0.20;;
37455;SDS011;23316;50.718;7.328;2023-04-01T04:30:46;0.52;;;0.20;;
37455;SDS011;23316;50.718;7.328;2023-04-01T04:33:13;0.45;;;0.10;;
37455;SDS011;23316;50.718;7.328;2023-04-01T04:35:41;0.85;;;0.30;;
37455;SDS011;23316;50.718;7.328;2023-04-01T04:38:08;1.35;;;0.30;;
37455;SDS011;23316;50.718;7.328;2023-04-01T04:40:37;1.13;;;0.30;;
37455;SDS011;23316;50.718;7.328;2023-04-01T04:43:07;0.95;;;0.13;;
37455;SDS011;23316;50.718;7.328;2023-04-01T04:45:37;0.30;;;0.10;;
37455;SDS011;23316;50.718;7.328;2023-04-01T04:48:05;1.77;;;0.20;;
37455;SDS011;23316;50.718;7.328;2023-04-01T04:50:34;0.63;;;0.15;;
37455;SDS011;23316;50.718;7.328;2023-04-01T04:53:01;0.55;;;0.20;;
37455;SDS011;23316;50.718;7.328;2023-04-01T04:55:29;0.63;;;0.20;;
37455;SDS011;23316;50.718;7.328;2023-04-01T04:57:58;2.40;;;0.20;;
37455;SDS011;23316;50.718;7.328;2023-04-01T05:00:25;0.55;;;0.20;;
37455;SDS011;23316;50.718;7.328;2023-04-01T05:02:53;0.40;;;0.10;;
37455;SDS011;23316;50.718;7.328;2023-04-01T05:05:20;0.43;;;0.25;;
37455;SDS011;23316;50.718;7.328;2023-04-01T05:07:48;0.95;;;0.10;;
37455;SDS011;23316;50.718;7.328;2023-04-01T05:10:16;0.57;;;0.10;;
37455;SDS011;23316;50.718;7.328;2023-04-01T05:12:43;0.10;;;0.10;;
37455;SDS011;23316;50.718;7.328;2023-04-01T05:15:12;0.60;;;0.10;;
37455;SDS011;23316;50.718;7.328;2023-04-01T05:17:40;0.70;;;0.20;;
37455;SDS011;23316;50.718;7.328;2023-04-01T05:20:08;0.20;;;0.20;;
37455;SDS011;23316;50.718;7.328;2023-04-01T05:22:38;0.57;;;0.10;;
37455;SDS011;23316;50.718;7.328;2023-04-01T05:25:06;1.55;;;0.20;;
37455;SDS011;23316;50.718;7.328;2023-04-01T05:27:34;1.08;;;0.22;;
37455;SDS011;23316;50.718;7.328;2023-04-01T05:30:02;0.85;;;0.20;;
37455;SDS011;23316;50.718;7.328;2023-04-01T05:32:33;0.43;;;0.10;;
37455;SDS011;23316;50.718;7.328;2023-04-01T05:35:01;0.10;;;0.10;;
37455;SDS011;23316;50.718;7.328;2023-04-01T05:37:29;0.63;;;0.20;;
37455;SDS011;23316;50.718;7.328;2023-04-01T05:39:57;0.80;;;0.20;;
37455;SDS011;23316;50.718;7.328;2023-04-01T05:42:25;0.38;;;0.10;;
37455;SDS011;23316;50.718;7.328;2023-04-01T05:44:53;0.90;;;0.28;;
37455;SDS011;23316;50.718;7.328;2023-04-01T05:47:21;0.95;;;0.20;;
37455;SDS011;23316;50.718;7.328;2023-04-01T05:49:50;1.52;;;0.25;;
37455;SDS011;23316;50.718;7.328;2023-04-01T05:52:18;0.52;;;0.10;;
37455;SDS011;23316;50.718;7.328;2023-04-01T05:54:46;0.40;;;0.03;;
37455;SDS011;23316;50.718;7.328;2023-04-01T05:57:15;1.00;;;0.25;;
37455;SDS011;23316;50.718;7.328;2023-04-01T05:59:42;1.90;;;0.20;;
37455;SDS011;23316;50.718;7.328;2023-04-01T06:02:17;0.32;;;0.05;;
37455;SDS011;23316;50.718;7.328;2023-04-01T06:04:45;0.10;;;0.08;;
37455;SDS011;23316;50.718;7.328;2023-04-01T06:07:14;0.08;;;0.00;;
37455;SDS011;23316;50.718;7.328;2023-04-01T06:09:42;0.52;;;0.17;;
37455;SDS011;23316;50.718;7.328;2023-04-01T06:12:16;0.95;;;0.20;;
37455;SDS011;23316;50.718;7.328;2023-04-01T06:14:59;3.25;;;1.48;;
37455;SDS011;23316;50.718;7.328;2023-04-01T06:17:38;7.07;;;3.20;;
37455;SDS011;23316;50.718;7.328;2023-04-01T06:20:17;11.45;;;7.90;;
37455;SDS011;23316;50.718;7.328;2023-04-01T06:22:55;12.80;;;8.65;;
37455;SDS011;23316;50.718;7.328;2023-04-01T06:25:36;4.40;;;3.45;;
37455;SDS011;23316;50.718;7.328;2023-04-01T06:31:10;0.50;;;0.50;;
37455;SDS011;23316;50.718;7.328;2023-04-01T06:33:52;0.77;;;0.43;;
37455;SDS011;23316;50.718;7.328;2023-04-01T06:36:39;1.30;;;0.70;;
37455;SDS011;23316;50.718;7.328;2023-04-01T06:39:34;1.70;;;0.65;;
37455;SDS011;23316;50.718;7.328;2023-04-01T06:45:25;1.95;;;1.15;;
37455;SDS011;23316;50.718;7.328;2023-04-01T06:48:09;1.42;;;0.85;;
37455;SDS011;23316;50.718;7.328;2023-04-01T06:50:45;0.93;;;0.80;;
37455;SDS011;23316;50.718;7.328;2023-04-01T06:53:21;0.28;;;0.22;;
37455;SDS011;23316;50.718;7.328;2023-04-01T06:55:57;0.35;;;0.35;;
37455;SDS011;23316;50.718;7.328;2023-04-01T06:58:29;0.55;;;0.40;;
37455;SDS011;23316;50.718;7.328;2023-04-01T07:01:02;0.30;;;0.30;;
37455;SDS011;23316;50.718;7.328;2023-04-01T07:03:32;0.60;;;0.28;;
37455;SDS011;23316;50.718;7.328;2023-04-01T07:16:20;0.38;;;0.13;;
37455;SDS011;23316;50.718;7.328;2023-04-01T07:18:54;0.10;;;0.10;;
37455;SDS011;23316;50.718;7.328;2023-04-01T07:21:26;2.63;;;0.77;;
37455;SDS011;23316;50.718;7.328;2023-04-01T07:23:58;0.70;;;0.50;;
37455;SDS011;23316;50.718;7.328;2023-04-01T07:26:29;0.50;;;0.40;;
37455;SDS011;23316;50.718;7.328;2023-04-01T07:28:57;0.50;;;0.30;;
37455;SDS011;23316;50.718;7.328;2023-04-01T07:31:29;1.95;;;1.08;;
37455;SDS011;23316;50.718;7.328;2023-04-01T07:34:09;1.38;;;0.70;;
37455;SDS011;23316;50.718;7.328;2023-04-01T07:36:42;1.23;;;0.63;;
37455;SDS011;23316;50.718;7.328;2023-04-01T07:39:17;1.67;;;0.55;;
37455;SDS011;23316;50.718;7.328;2023-04-01T07:41:55;0.63;;;0.40;;
37455;SDS011;23316;50.718;7.328;2023-04-01T07:44:29;0.32;;;0.30;;
37455;SDS011;23316;50.718;7.328;2023-04-01T07:47:11;0.57;;;0.30;;
37455;SDS011;23316;50.718;7.328;2023-04-01T07:49:51;1.75;;;0.68;;
37455;SDS011;23316;50.718;7.328;2023-04-01T07:52:27;0.98;;;0.60;;
37455;SDS011;23316;50.718;7.328;2023-04-01T07:55:01;0.45;;;0.30;;
37455;SDS011;23316;50.718;7.328;2023-04-01T07:57:36;0.98;;;0.30;;
37455;SDS011;23316;50.718;7.328;2023-04-01T08:00:09;0.32;;;0.10;;
37455;SDS011;23316;50.718;7.328;2023-04-01T08:02:47;0.47;;;0.43;;
37455;SDS011;23316;50.718;7.328;2023-04-01T08:05:40;1.58;;;0.40;;
37455;SDS011;23316;50.718;7.328;2023-04-01T08:08:14;0.95;;;0.30;;
37455;SDS011;23316;50.718;7.328;2023-04-01T08:10:49;2.05;;;0.22;;
37455;SDS011;23316;50.718;7.328;2023-04-01T08:13:25;0.45;;;0.20;;
37455;SDS011;23316;50.718;7.328;2023-04-01T08:16:03;0.47;;;0.25;;
37455;SDS011;23316;50.718;7.328;2023-04-01T08:18:41;0.40;;;0.20;;
37455;SDS011;23316;50.718;7.328;2023-04-01T08:21:14;0.65;;;0.30;;
37455;SDS011;23316;50.718;7.328;2023-04-01T08:23:46;0.30;;;0.30;;
37455;SDS011;23316;50.718;7.328;2023-04-01T08:26:17;0.20;;;0.17;;
37455;SDS011;23316;50.718;7.328;2023-04-01T08:28:50;0.77;;;0.25;;
37455;SDS011;23316;50.718;7.328;2023-04-01T08:31:22;0.17;;;0.15;;
37455;SDS011;23316;50.718;7.328;2023-04-01T08:33:58;0.10;;;0.10;;
37455;SDS011;23316;50.718;7.328;2023-04-01T08:36:28;0.25;;;0.22;;
37455;SDS011;23316;50.718;7.328;2023-04-01T08:38:59;0.55;;;0.13;;
37455;SDS011;23316;50.718;7.328;2023-04-01T08:41:37;0.52;;;0.25;;
37455;SDS011;23316;50.718;7.328;2023-04-01T08:44:24;0.13;;;0.13;;
37455;SDS011;23316;50.718;7.328;2023-04-01T08:47:13;0.15;;;0.15;;
37455;SDS011;23316;50.718;7.328;2023-04-01T08:49:58;0.80;;;0.47;;
37455;SDS011;23316;50.718;7.328;2023-04-01T08:52:37;0.90;;;0.60;;
37455;SDS011;23316;50.718;7.328;2023-04-01T08:55:23;1.08;;;0.30;;
37455;SDS011;23316;50.718;7.328;2023-04-01T09:01:15;0.68;;;0.47;;
37455;SDS011;23316;50.718;7.328;2023-04-01T09:04:02;0.80;;;0.40;;
37455;SDS011;23316;50.718;7.328;2023-04-01T09:06:45;1.10;;;0.55;;
37455;SDS011;23316;50.718;7.328;2023-04-01T09:09:25;1.42;;;0.40;;
37455;SDS011;23316;50.718;7.328;2023-04-01T09:18:09;2.17;;;0.88;;
37455;SDS011;23316;50.718;7.328;2023-04-01T09:21:06;1.38;;;0.90;;
37455;SDS011;23316;50.718;7.328;2023-04-01T09:27:03;0.85;;;0.77;;
37455;SDS011;23316;50.718;7.328;2023-04-01T09:32:42;1.23;;;0.50;;
37455;SDS011;23316;50.718;7.328;2023-04-01T09:35:22;0.73;;;0.57;;
37455;SDS011;23316;50.718;7.328;2023-04-01T09:37:52;1.55;;;0.30;;
37455;SDS011;23316;50.718;7.328;2023-04-01T09:40:33;0.30;;;0.20;;
37455;SDS011;23316;50.718;7.328;2023-04-01T09:43:21;1.20;;;0.22;;
37455;SDS011;23316;50.718;7.328;2023-04-01T09:45:58;0.35;;;0.20;;
37455;SDS011;23316;50.718;7.328;2023-04-01T09:51:40;0.93;;;0.20;;
37455;SDS011;23316;50.718;7.328;2023-04-01T09:54:20;0.55;;;0.25;;
37455;SDS011;23316;50.718;7.328;2023-04-01T10:00:02;0.10;;;0.10;;
37455;SDS011;23316;50.718;7.328;2023-04-01T10:14:39;1.15;;;0.25;;
37455;SDS011;23316;50.718;7.328;2023-04-01T10:17:48;0.95;;;0.25;;
37455;SDS011;23316;50.718;7.328;2023-04-01T10:20:42;0.20;;;0.20;;
37455;SDS011;23316;50.718;7.328;2023-04-01T10:23:22;0.10;;;0.10;;
37455;SDS011;23316;50.718;7.328;2023-04-01T10:26:18;0.95;;;0.20;;
37455;SDS011;23316;50.718;7.328;2023-04-01T10:35:02;0.32;;;0.30;;
37455;SDS011;23316;50.718;7.328;2023-04-01T10:38:03;0.20;;;0.10;;
37455;SDS011;23316;50.718;7.328;2023-04-01T10:40:53;1.17;;;0.40;;
37455;SDS011;23316;50.718;7.328;2023-04-01T10:43:40;0.30;;;0.28;;
37455;SDS011;23316;50.718;7.328;2023-04-01T10:49:39;0.20;;;0.10;;
37455;SDS011;23316;50.718;7.328;2023-04-01T10:55:28;0.15;;;0.15;;
37455;SDS011;23316;50.718;7.328;2023-04-01T11:17:13;0.10;;;0.10;;
37455;SDS011;23316;50.718;7.328;2023-04-01T11:20:01;0.20;;;0.20;;
37455;SDS011;23316;50.718;7.328;2023-04-01T11:25:38;0.25;;;0.20;;
37455;SDS011;23316;50.718;7.328;2023-04-01T11:31:51;0.20;;;0.17;;
37455;SDS011;23316;50.718;7.328;2023-04-01T11:37:24;0.20;;;0.17;;
37455;SDS011;23316;50.718;7.328;2023-04-01T11:40:02;0.47;;;0.20;;
37455;SDS011;23316;50.718;7.328;2023-04-01T11:42:43;0.38;;;0.10;;
37455;SDS011;23316;50.718;7.328;2023-04-01T11:45:19;0.30;;;0.15;;
37455;SDS011;23316;50.718;7.328;2023-04-01T11:50:58;0.40;;;0.20;;
37455;SDS011;23316;50.718;7.328;2023-04-01T11:53:49;0.30;;;0.20;;
37455;SDS011;23316;50.718;7.328;2023-04-01T11:56:32;0.28;;;0.20;;
37455;SDS011;23316;50.718;7.328;2023-04-01T12:02:09;1.20;;;0.70;;
37455;SDS011;23316;50.718;7.328;2023-04-01T12:07:40;1.10;;;0.30;;
37455;SDS011;23316;50.718;7.328;2023-04-01T12:10:17;0.28;;;0.28;;
37455;SDS011;23316;50.718;7.328;2023-04-01T12:12:49;1.27;;;0.20;;
37455;SDS011;23316;50.718;7.328;2023-04-01T12:15:28;0.75;;;0.30;;
37455;SDS011;23316;50.718;7.328;2023-04-01T12:18:02;1.27;;;0.20;;
37455;SDS011;23316;50.718;7.328;2023-04-01T12:20:39;0.50;;;0.30;;
37455;SDS011;23316;50.718;7.328;2023-04-01T12:23:16;0.60;;;0.30;;
37455;SDS011;23316;50.718;7.328;2023-04-01T12:26:06;0.98;;;0.30;;
37455;SDS011;23316;50.718;7.328;2023-04-01T12:28:49;0.50;;;0.10;;
37455;SDS011;23316;50.718;7.328;2023-04-01T12:31:34;0.73;;;0.37;;
37455;SDS011;23316;50.718;7.328;2023-04-01T12:34:28;1.67;;;0.28;;
37455;SDS011;23316;50.718;7.328;2023-04-01T12:37:15;0.63;;;0.30;;
37455;SDS011;23316;50.718;7.328;2023-04-01T12:39:51;0.75;;;0.40;;
37455;SDS011;23316;50.718;7.328;2023-04-01T12:42:34;0.20;;;0.20;;
37455;SDS011;23316;50.718;7.328;2023-04-01T12:45:27;0.57;;;0.30;;
37455;SDS011;23316;50.718;7.328;2023-04-01T12:48:02;1.10;;;0.50;;
37455;SDS011;23316;50.718;7.328;2023-04-01T12:50:43;1.48;;;0.60;;
37455;SDS011;23316;50.718;7.328;2023-04-01T12:53:27;0.82;;;0.30;;
37455;SDS011;23316;50.718;7.328;2023-04-01T12:56:06;0.70;;;0.30;;
37455;SDS011;23316;50.718;7.328;2023-04-01T12:58:52;0.22;;;0.22;;
37455;SDS011;23316;50.718;7.328;2023-04-01T13:01:50;0.88;;;0.50;;
37455;SDS011;23316;50.718;7.328;2023-04-01T13:04:36;0.40;;;0.35;;
37455;SDS011;23316;50.718;7.328;2023-04-01T13:07:23;0.22;;;0.22;;
37455;SDS011;23316;50.718;7.328;2023-04-01T13:10:13;1.20;;;0.40;;
37455;SDS011;23316;50.718;7.328;2023-04-01T13:12:59;0.20;;;0.20;;
37455;SDS011;23316;50.718;7.328;2023-04-01T13:15:45;0.47;;;0.20;;
37455;SDS011;23316;50.718;7.328;2023-04-01T13:18:18;0.20;;;0.20;;
37455;SDS011;23316;50.718;7.328;2023-04-01T13:20:59;0.20;;;0.20;;
37455;SDS011;23316;50.718;7.328;2023-04-01T13:23:37;0.82;;;0.20;;
37455;SDS011;23316;50.718;7.328;2023-04-01T13:26:22;0.43;;;0.20;;
37455;SDS011;23316;50.718;7.328;2023-04-01T13:28:56;0.40;;;0.22;;
37455;SDS011;23316;50.718;7.328;2023-04-01T13:34:23;0.60;;;0.28;;
37455;SDS011;23316;50.718;7.328;2023-04-01T13:37:04;0.70;;;0.40;;
37455;SDS011;23316;50.718;7.328;2023-04-01T13:39:57;0.85;;;0.20;;
37455;SDS011;23316;50.718;7.328;2023-04-01T13:42:33;1.38;;;0.20;;
37455;SDS011;23316;50.718;7.328;2023-04-01T13:45:10;0.20;;;0.20;;
37455;SDS011;23316;50.718;7.328;2023-04-01T13:51:12;0.25;;;0.25;;
37455;SDS011;23316;50.718;7.328;2023-04-01T13:54:11;0.47;;;0.30;;
37455;SDS011;23316;50.718;7.328;2023-04-01T13:57:17;0.90;;;0.50;;
37455;SDS011;23316;50.718;7.328;2023-04-01T13:59:59;3.35;;;0.70;;
37455;SDS011;23316;50.718;7.328;2023-04-01T14:02:39;1.42;;;0.80;;
37455;SDS011;23316;50.718;7.328;2023-04-01T14:05:24;1.02;;;0.80;;
37455;SDS011;23316;50.718;7.328;2023-04-01T14:08:05;1.35;;;0.60;;
37455;SDS011;23316;50.718;7.328;2023-04-01T14:10:40;0.82;;;0.77;;
37455;SDS011;23316;50.718;7.328;2023-04-01T14:13:17;0.82;;;0.50;;
37455;SDS011;23316;50.718;7.328;2023-04-01T14:15:55;0.70;;;0.50;;
37455;SDS011;23316;50.718;7.328;2023-04-01T14:18:42;0.52;;;0.50;;
37455;SDS011;23316;50.718;7.328;2023-04-01T14:21:23;0.73;;;0.68;;
37455;SDS011;23316;50.718;7.328;2023-04-01T14:24:06;0.40;;;0.40;;
37455;SDS011;23316;50.718;7.328;2023-04-01T14:29:42;0.70;;;0.50;;
37455;SDS011;23316;50.718;7.328;2023-04-01T14:32:23;3.22;;;0.50;;
37455;SDS011;23316;50.718;7.328;2023-04-01T14:35:03;0.45;;;0.40;;
37455;SDS011;23316;50.718;7.328;2023-04-01T14:37:52;1.15;;;0.40;;
37455;SDS011;23316;50.718;7.328;2023-04-01T14:43:27;1.50;;;0.60;;
37455;SDS011;23316;50.718;7.328;2023-04-01T14:46:23;1.58;;;0.60;;
37455;SDS011;23316;50.718;7.328;2023-04-01T14:49:32;1.17;;;0.50;;
37455;SDS011;23316;50.718;7.328;2023-04-01T14:52:09;0.20;;;0.20;;
37455;SDS011;23316;50.718;7.328;2023-04-01T14:54:40;0.20;;;0.20;;
37455;SDS011;23316;50.718;7.328;2023-04-01T14:57:11;0.75;;;0.20;;
37455;SDS011;23316;50.718;7.328;2023-04-01T14:59:41;2.03;;;0.60;;
37455;SDS011;23316;50.718;7.328;2023-04-01T15:02:18;1.52;;;0.40;;
37455;SDS011;23316;50.718;7.328;2023-04-01T15:05:15;0.55;;;0.35;;
37455;SDS011;23316;50.718;7.328;2023-04-01T15:07:54;0.75;;;0.32;;
37455;SDS011;23316;50.718;7.328;2023-04-01T15:10:39;0.40;;;0.25;;
37455;SDS011;23316;50.718;7.328;2023-04-01T15:13:18;0.70;;;0.40;;
37455;SDS011;23316;50.718;7.328;2023-04-01T15:16:01;0.85;;;0.40;;
37455;SDS011;23316;50.718;7.328;2023-04-01T15:18:40;2.63;;;0.25;;
37455;SDS011;23316;50.718;7.328;2023-04-01T15:21:18;0.50;;;0.50;;
37455;SDS011;23316;50.718;7.328;2023-04-01T15:24:01;0.60;;;0.50;;
37455;SDS011;23316;50.718;7.328;2023-04-01T15:26:47;0.40;;;0.40;;
37455;SDS011;23316;50.718;7.328;2023-04-01T15:32:29;0.55;;;0.30;;
37455;SDS011;23316;50.718;7.328;2023-04-01T15:35:10;0.25;;;0.20;;
37455;SDS011;23316;50.718;7.328;2023-04-01T15:37:48;0.88;;;0.40;;
37455;SDS011;23316;50.718;7.328;2023-04-01T15:40:22;0.40;;;0.30;;
37455;SDS011;23316;50.718;7.328;2023-04-01T15:43:05;0.60;;;0.30;;
37455;SDS011;23316;50.718;7.328;2023-04-01T15:45:49;2.92;;;0.40;;
37455;SDS011;23316;50.718;7.328;2023-04-01T15:48:31;0.82;;;0.40;;
37455;SDS011;23316;50.718;7.328;2023-04-01T15:51:11;0.82;;;0.50;;
37455;SDS011;23316;50.718;7.328;2023-04-01T15:56:54;0.50;;;0.40;;
37455;SDS011;23316;50.718;7.328;2023-04-01T15:59:41;0.50;;;0.47;;
37455;SDS011;23316;50.718;7.328;2023-04-01T16:02:21;1.15;;;0.47;;
37455;SDS011;23316;50.718;7.328;2023-04-01T16:04:58;3.30;;;0.60;;
37455;SDS011;23316;50.718;7.328;2023-04-01T16:07:39;0.43;;;0.43;;
37455;SDS011;23316;50.718;7.328;2023-04-01T16:10:22;0.50;;;0.43;;
37455;SDS011;23316;50.718;7.328;2023-04-01T16:13:02;5.13;;;0.55;;
37455;SDS011;23316;50.718;7.328;2023-04-01T16:15:43;0.63;;;0.50;;
37455;SDS011;23316;50.718;7.328;2023-04-01T16:18:24;2.05;;;0.65;;
37455;SDS011;23316;50.718;7.328;2023-04-01T16:21:06;4.85;;;0.43;;
37455;SDS011;23316;50.718;7.328;2023-04-01T16:23:40;0.40;;;0.40;;
37455;SDS011;23316;50.718;7.328;2023-04-01T16:26:16;0.90;;;0.40;;
37455;SDS011;23316;50.718;7.328;2023-04-01T16:28:50;0.40;;;0.30;;
37455;SDS011;23316;50.718;7.328;2023-04-01T16:31:26;0.93;;;0.30;;
37455;SDS011;23316;50.718;7.328;2023-04-01T16:34:01;0.22;;;0.20;;
37455;SDS011;23316;50.718;7.328;2023-04-01T16:36:37;0.40;;;0.20;;
37455;SDS011;23316;50.718;7.328;2023-04-01T16:39:16;0.47;;;0.32;;
37455;SDS011;23316;50.718;7.328;2023-04-01T16:41:52;0.90;;;0.50;;
37455;SDS011;23316;50.718;7.328;2023-04-01T16:44:44;1.38;;;0.50;;
37455;SDS011;23316;50.718;7.328;2023-04-01T16:47:17;0.30;;;0.30;;
37455;SDS011;23316;50.718;7.328;2023-04-01T16:49:50;1.13;;;0.40;;
37455;SDS011;23316;50.718;7.328;2023-04-01T16:52:34;0.32;;;0.28;;
37455;SDS011;23316;50.718;7.328;2023-04-01T16:55:12;0.30;;;0.30;;
37455;SDS011;23316;50.718;7.328;2023-04-01T16:57:45;0.40;;;0.40;;
37455;SDS011;23316;50.718;7.328;2023-04-01T17:00:17;0.43;;;0.30;;
37455;SDS011;23316;50.718;7.328;2023-04-01T17:02:53;0.30;;;0.30;;
37455;SDS011;23316;50.718;7.328;2023-04-01T17:05:36;0.30;;;0.30;;
37455;SDS011;23316;50.718;7.328;2023-04-01T17:08:14;5.03;;;0.55;;
37455;SDS011;23316;50.718;7.328;2023-04-01T17:10:51;2.60;;;1.05;;
37455;SDS011;23316;50.718;7.328;2023-04-01T17:13:27;1.00;;;0.40;;
37455;SDS011;23316;50.718;7.328;2023-04-01T17:16:04;0.32;;;0.32;;
37455;SDS011;23316;50.718;7.328;2023-04-01T17:18:43;0.25;;;0.25;;
37455;SDS011;23316;50.718;7.328;2023-04-01T17:21:19;0.73;;;0.40;;
37455;SDS011;23316;50.718;7.328;2023-04-01T17:23:58;0.63;;;0.40;;
37455;SDS011;23316;50.718;7.328;2023-04-01T17:26:32;0.65;;;0.30;;
37455;SDS011;23316;50.718;7.328;2023-04-01T17:29:07;1.00;;;0.50;;
37455;SDS011;23316;50.718;7.328;2023-04-01T17:31:44;0.47;;;0.40;;
37455;SDS011;23316;50.718;7.328;2023-04-01T17:34:18;1.17;;;0.40;;
37455;SDS011;23316;50.718;7.328;2023-04-01T17:36:57;0.50;;;0.40;;
37455;SDS011;23316;50.718;7.328;2023-04-01T17:39:40;0.50;;;0.40;;
37455;SDS011;23316;50.718;7.328;2023-04-01T17:42:16;0.50;;;0.40;;